Kasimov, Russia
Current Conditions -  °F | °C
As of 2:00 AM on Monday 22 Dec 2014 (Local Time) from UWGG Reporting Station
Light Snow Light Snow  
Wind Chill: 28°   Ceiling: 1000
Heat Index: 34°   Visibility: 4mi
Dew Point: 32°   Wind: 7mph
Humidity: 93%   Direction: 190°S
Pressure: 29.5"   Gusts: NA
Location:  54.94°N, 41.39°E
Report Text: UWGG 212300Z 19003MPS 6000 -SN OVC010 01/M00 Q0999 NOSIG18120048 RMK QFE742
Loading
Personal Weather Stations






























Interactive Weather Map New forecast layout! Learn more

10-Day Weather Forecast

Advertisements
Track Severe Weather on mobile